createdAt,value
2019-05-16T00:02:01.330Z,6.10
2019-05-16T00:04:30.397Z,6.10
2019-05-16T00:06:59.812Z,6.10
2019-05-16T00:09:29.252Z,6.10
2019-05-16T00:11:58.564Z,6.10
2019-05-16T00:14:28.208Z,6.10
2019-05-16T00:16:58.928Z,6.10
2019-05-16T00:19:28.839Z,6.10
2019-05-16T00:21:58.397Z,6.10
2019-05-16T00:24:29.152Z,6.00
2019-05-16T00:26:58.864Z,6.00
2019-05-16T00:29:28.195Z,6.10
2019-05-16T00:31:58.064Z,6.00
2019-05-16T00:34:27.962Z,6.00
2019-05-16T00:36:58.231Z,6.00
2019-05-16T00:39:28.135Z,6.00
2019-05-16T00:41:58.352Z,6.00
2019-05-16T00:44:28.200Z,5.90
2019-05-16T00:46:58.127Z,6.00
2019-05-16T00:49:28.070Z,6.00
2019-05-16T00:51:58.440Z,6.00
2019-05-16T00:54:28.066Z,6.00
2019-05-16T00:56:59.082Z,6.00
2019-05-16T00:59:28.943Z,6.00
2019-05-16T01:01:58.781Z,5.90
2019-05-16T01:04:28.839Z,6.00
2019-05-16T01:07:01.516Z,6.00
2019-05-16T01:09:29.526Z,6.00
2019-05-16T01:11:58.834Z,5.90
2019-05-16T01:14:28.318Z,6.00
2019-05-16T01:16:58.162Z,6.00
2019-05-16T01:19:27.875Z,6.00
2019-05-16T01:21:59.043Z,5.90
2019-05-16T01:24:29.249Z,6.00
2019-05-16T01:26:58.766Z,6.00
2019-05-16T01:29:30.079Z,6.00
2019-05-16T01:31:59.177Z,6.00
2019-05-16T01:34:28.660Z,6.00
2019-05-16T01:37:08.389Z,6.00
2019-05-16T01:39:38.287Z,6.00
2019-05-16T01:42:12.070Z,6.00
2019-05-16T01:44:38.686Z,6.00
2019-05-16T01:47:09.616Z,6.00
2019-05-16T01:49:44.963Z,6.00
2019-05-16T01:52:17.821Z,6.00
2019-05-16T01:54:50.804Z,6.00
2019-05-16T01:57:19.898Z,6.00
2019-05-16T01:59:49.238Z,5.90
2019-05-16T02:02:18.642Z,6.00
2019-05-16T02:04:48.480Z,6.00
2019-05-16T02:07:18.791Z,6.00
2019-05-16T02:09:48.378Z,6.00
2019-05-16T02:12:18.472Z,6.00
2019-05-16T02:14:48.180Z,6.00
2019-05-16T02:17:18.322Z,6.00
2019-05-16T02:19:48.554Z,5.90
2019-05-16T02:22:18.254Z,6.00
2019-05-16T02:24:48.040Z,6.00
2019-05-16T02:27:18.233Z,6.00
2019-05-16T02:29:47.682Z,6.10
2019-05-16T02:32:17.014Z,6.00
2019-05-16T02:34:46.377Z,6.00
2019-05-16T02:37:24.093Z,6.10
2019-05-16T02:39:47.060Z,6.10
2019-05-16T02:42:16.508Z,6.10
2019-05-16T02:44:45.894Z,6.10
2019-05-16T02:47:15.321Z,6.10
2019-05-16T02:49:44.726Z,6.10
2019-05-16T02:52:14.134Z,6.10
2019-05-16T02:54:43.556Z,6.10
2019-05-16T02:57:12.886Z,6.10
2019-05-16T02:59:42.341Z,6.10
2019-05-16T03:02:11.807Z,6.10
2019-05-16T03:04:44.366Z,6.10
2019-05-16T03:07:31.667Z,6.00
2019-05-16T03:09:45.321Z,6.00
2019-05-16T03:12:15.734Z,6.10
2019-05-16T03:14:47.207Z,6.10
2019-05-16T03:17:21.414Z,6.10
2019-05-16T03:19:53.143Z,6.10
2019-05-16T03:22:24.791Z,6.10
2019-05-16T03:24:54.219Z,6.10
2019-05-16T03:27:23.536Z,6.10
2019-05-16T03:29:52.952Z,6.10
2019-05-16T03:32:24.402Z,6.10
2019-05-16T03:34:55.090Z,6.10
2019-05-16T03:37:25.279Z,6.10
2019-05-16T03:39:54.765Z,6.10
2019-05-16T03:42:24.179Z,6.10
2019-05-16T03:44:53.540Z,6.10
2019-05-16T03:47:22.919Z,6.10
2019-05-16T03:49:52.374Z,6.10
2019-05-16T03:52:21.759Z,6.10
2019-05-16T03:54:51.105Z,6.10
2019-05-16T03:57:21.150Z,6.10
2019-05-16T03:59:51.801Z,6.10
2019-05-16T04:02:21.707Z,6.10
2019-05-16T04:04:51.368Z,6.20
2019-05-16T04:07:21.575Z,6.20
2019-05-16T04:09:51.099Z,6.20
2019-05-16T04:12:21.382Z,6.20
2019-05-16T04:14:51.415Z,6.20
2019-05-16T04:17:21.274Z,6.20
2019-05-16T04:19:51.067Z,6.20
2019-05-16T04:22:21.471Z,6.30
2019-05-16T04:24:51.456Z,6.30
2019-05-16T04:27:21.648Z,6.30
2019-05-16T04:29:51.562Z,6.30
2019-05-16T04:32:21.260Z,6.30
2019-05-16T04:34:51.275Z,6.30
2019-05-16T04:37:24.131Z,6.30
2019-05-16T04:39:52.576Z,6.30
2019-05-16T04:42:22.144Z,6.30
2019-05-16T04:44:51.847Z,6.30
2019-05-16T04:47:21.370Z,6.30
2019-05-16T04:49:51.955Z,6.40
2019-05-16T04:52:22.495Z,6.40
2019-05-16T04:54:53.347Z,6.40
2019-05-16T04:57:22.813Z,6.40
2019-05-16T04:59:52.231Z,6.40
2019-05-16T05:02:21.686Z,6.40
2019-05-16T05:05:50.875Z,6.40
2019-05-16T05:20:30.423Z,6.50
2019-05-16T06:21:32.999Z,7.00
2019-05-16T06:24:31.234Z,7.10
2019-05-16T06:30:40.561Z,7.30
2019-05-16T06:36:42.357Z,7.50
2019-05-16T06:39:45.564Z,7.60
2019-05-16T06:46:10.934Z,7.80
2019-05-16T06:48:21.708Z,7.90
2019-05-16T06:50:43.520Z,8.00
2019-05-16T06:53:24.734Z,8.00
2019-05-16T06:56:03.453Z,8.10
2019-05-16T06:59:01.935Z,8.10
2019-05-16T07:01:34.793Z,8.20
2019-05-16T07:04:10.362Z,8.20
2019-05-16T07:06:54.885Z,8.20
2019-05-16T07:09:13.033Z,8.20
2019-05-16T07:11:42.445Z,8.30
2019-05-16T07:14:11.818Z,8.40
2019-05-16T07:16:41.125Z,8.40
2019-05-16T07:19:10.711Z,8.40
2019-05-16T07:21:40.135Z,8.40
2019-05-16T07:24:10.904Z,8.40
2019-05-16T07:26:40.735Z,8.50
2019-05-16T07:29:11.063Z,8.50
2019-05-16T07:31:40.775Z,8.50
2019-05-16T07:34:11.562Z,8.50
2019-05-16T07:36:41.248Z,8.60
2019-05-16T07:39:10.998Z,8.60
2019-05-16T07:41:40.497Z,8.60
2019-05-16T07:44:10.825Z,8.70
2019-05-16T07:46:44.429Z,8.70
2019-05-16T07:49:11.677Z,8.70
2019-05-16T07:51:41.111Z,8.80
2019-05-16T07:54:10.677Z,8.80
2019-05-16T07:56:40.659Z,8.90
2019-05-16T07:59:10.600Z,9.00
2019-05-16T08:01:41.697Z,9.00
2019-05-16T08:04:11.067Z,9.10
2019-05-16T08:06:41.039Z,9.10
2019-05-16T08:09:12.425Z,9.20
2019-05-16T08:11:42.400Z,9.20
2019-05-16T08:14:11.831Z,9.30
2019-05-16T08:16:41.244Z,9.30
2019-05-16T08:19:10.777Z,9.30
2019-05-16T08:21:41.123Z,9.40
2019-05-16T08:24:14.925Z,9.40
2019-05-16T08:26:43.172Z,9.40
2019-05-16T08:29:13.524Z,9.50
2019-05-16T08:31:43.808Z,9.50
2019-05-16T08:34:13.295Z,9.60
2019-05-16T08:36:42.686Z,9.70
2019-05-16T08:39:12.099Z,9.80
2019-05-16T08:41:42.399Z,9.90
2019-05-16T08:44:12.638Z,10.00
2019-05-16T08:46:42.589Z,10.10
2019-05-16T08:49:12.673Z,10.20
2019-05-16T08:51:42.802Z,10.30
2019-05-16T08:54:14.897Z,10.30
2019-05-16T08:56:44.550Z,10.40
2019-05-16T08:59:14.092Z,10.40
2019-05-16T09:01:52.090Z,10.60
2019-05-16T09:04:14.527Z,10.60
2019-05-16T09:06:43.848Z,10.60
2019-05-16T09:09:29.739Z,10.60
2019-05-16T09:11:45.828Z,10.60
2019-05-16T09:14:17.116Z,10.50
2019-05-16T09:16:47.819Z,10.50
2019-05-16T09:19:17.396Z,10.40
2019-05-16T09:21:47.565Z,10.40
2019-05-16T09:24:18.060Z,10.50
2019-05-16T09:26:47.763Z,10.50
2019-05-16T09:29:17.135Z,10.40
2019-05-16T09:32:07.258Z,10.50
2019-05-16T09:34:17.748Z,10.60
2019-05-16T09:36:48.140Z,10.70
2019-05-16T09:39:17.891Z,10.80
2019-05-16T09:41:58.453Z,10.90
2019-05-16T09:44:18.634Z,11.00
2019-05-16T09:46:48.184Z,11.00
2019-05-16T09:49:24.202Z,11.00
2019-05-16T09:51:48.615Z,11.10
2019-05-16T09:54:17.950Z,11.10
2019-05-16T09:56:47.346Z,11.20
2019-05-16T09:59:17.224Z,11.40
2019-05-16T10:01:47.816Z,11.50
2019-05-16T10:04:17.766Z,11.50
2019-05-16T10:06:47.452Z,11.70
2019-05-16T10:09:17.548Z,11.70
2019-05-16T10:11:50.844Z,11.70
2019-05-16T10:14:18.753Z,11.70
2019-05-16T10:16:48.146Z,11.80
2019-05-16T10:19:17.551Z,11.70
2019-05-16T10:21:46.976Z,11.70
2019-05-16T10:24:16.389Z,11.60
2019-05-16T10:26:46.732Z,11.50
2019-05-16T10:29:18.293Z,11.40
2019-05-16T10:31:52.931Z,11.40
2019-05-16T10:34:19.197Z,11.50
2019-05-16T10:36:48.519Z,11.50
2019-05-16T10:39:17.898Z,11.60
2019-05-16T10:41:47.271Z,11.50
2019-05-16T10:44:17.578Z,11.40
2019-05-16T10:46:47.900Z,11.50
2019-05-16T10:49:31.696Z,11.60
2019-05-16T10:51:48.721Z,11.70
2019-05-16T10:54:18.637Z,11.70
2019-05-16T10:56:48.522Z,11.80
2019-05-16T11:01:49.003Z,11.90
2019-05-16T11:04:28.446Z,12.10
2019-05-16T11:06:49.467Z,12.20
2019-05-16T11:09:18.796Z,12.30
2019-05-16T11:11:48.242Z,12.40
2019-05-16T11:14:17.650Z,12.70
2019-05-16T11:16:47.498Z,12.90
2019-05-16T11:19:23.627Z,13.10
2019-05-16T11:21:48.298Z,13.30
2019-05-16T11:24:17.726Z,13.30
2019-05-16T11:26:47.491Z,13.10
2019-05-16T11:29:17.057Z,13.30
2019-05-16T11:31:46.913Z,13.20
2019-05-16T11:34:17.383Z,13.20
2019-05-16T11:36:47.783Z,13.10
2019-05-16T11:39:17.582Z,13.20
2019-05-16T11:41:47.673Z,13.50
2019-05-16T11:44:17.776Z,13.60
2019-05-16T11:46:49.109Z,13.60
2019-05-16T11:49:18.423Z,13.70
2019-05-16T11:51:47.885Z,13.50
2019-05-16T11:54:17.386Z,13.30
2019-05-16T11:56:46.760Z,13.20
2019-05-16T11:59:16.085Z,13.00
2019-05-16T12:01:47.462Z,13.10
2019-05-16T12:04:17.404Z,13.00
2019-05-16T12:06:47.132Z,13.00
2019-05-16T12:09:17.775Z,12.80
2019-05-16T12:11:47.592Z,12.80
2019-05-16T12:14:16.917Z,12.80
2019-05-16T12:16:47.293Z,12.90
2019-05-16T12:19:18.137Z,12.90
2019-05-16T12:21:47.814Z,12.90
2019-05-16T12:24:31.546Z,13.00
2019-05-16T12:26:48.291Z,12.90
2019-05-16T12:29:17.713Z,13.10
2019-05-16T12:31:57.700Z,13.10
2019-05-16T12:34:18.330Z,13.20
2019-05-16T12:36:47.777Z,13.30
2019-05-16T12:39:17.323Z,13.50
2019-05-16T12:41:49.249Z,13.60
2019-05-16T12:44:18.109Z,13.90
2019-05-16T12:46:47.637Z,14.20
2019-05-16T12:49:17.492Z,14.40
2019-05-16T12:51:47.270Z,14.60
2019-05-16T12:54:18.286Z,14.60
2019-05-16T12:56:48.334Z,14.70
2019-05-16T12:59:21.196Z,14.80
2019-05-16T13:01:49.051Z,14.90
2019-05-16T13:04:19.129Z,14.90
2019-05-16T13:06:49.029Z,14.90
2019-05-16T13:09:18.678Z,14.70
2019-05-16T13:11:48.236Z,14.70
2019-05-16T13:14:17.627Z,14.70
2019-05-16T13:16:47.513Z,14.80
2019-05-16T13:19:18.147Z,14.90
2019-05-16T13:21:47.931Z,14.90
2019-05-16T13:24:18.728Z,14.90
2019-05-16T13:26:48.487Z,14.90
2019-05-16T13:29:18.240Z,15.00
2019-05-16T13:31:48.233Z,15.00
2019-05-16T13:34:17.941Z,15.00
2019-05-16T13:36:47.700Z,15.00
2019-05-16T13:39:17.414Z,14.90
2019-05-16T13:41:46.814Z,14.80
2019-05-16T13:44:22.651Z,14.70
2019-05-16T13:46:47.261Z,14.70
2019-05-16T13:49:18.038Z,14.50
2019-05-16T13:51:47.888Z,14.40
2019-05-16T13:54:17.801Z,14.40
2019-05-16T13:56:48.280Z,14.40
2019-05-16T13:59:18.286Z,14.40
2019-05-16T14:01:47.734Z,14.30
2019-05-16T14:04:17.479Z,14.30
2019-05-16T14:06:47.509Z,14.30
2019-05-16T14:09:17.282Z,14.20
2019-05-16T14:11:46.665Z,14.20
2019-05-16T14:14:25.595Z,14.10
2019-05-16T14:16:47.101Z,14.00
2019-05-16T14:19:17.441Z,14.00
2019-05-16T14:21:48.007Z,14.00
2019-05-16T14:24:18.174Z,14.00
2019-05-16T14:26:47.779Z,14.00
2019-05-16T14:29:17.687Z,14.00
2019-05-16T14:31:47.400Z,14.00
2019-05-16T14:34:18.106Z,14.10
2019-05-16T14:36:48.043Z,14.00
2019-05-16T14:39:19.344Z,14.00
2019-05-16T14:41:48.617Z,14.00
2019-05-16T14:44:18.395Z,14.10
2019-05-16T14:46:48.077Z,14.10
2019-05-16T14:49:17.563Z,14.10
2019-05-16T14:51:47.879Z,14.00
2019-05-16T14:54:17.439Z,14.00
2019-05-16T14:56:47.684Z,14.00
2019-05-16T14:59:17.215Z,14.00
2019-05-16T15:01:47.395Z,14.10
2019-05-16T15:04:17.034Z,14.20
2019-05-16T15:06:47.125Z,14.40
2019-05-16T15:09:17.209Z,14.40
2019-05-16T15:11:47.440Z,14.40
2019-05-16T15:14:17.583Z,14.40
2019-05-16T15:16:51.153Z,14.30
2019-05-16T15:19:18.575Z,14.30
2019-05-16T15:21:47.927Z,14.30
2019-05-16T15:24:17.893Z,14.30
2019-05-16T15:26:47.463Z,14.30
2019-05-16T15:29:16.976Z,14.40
2019-05-16T15:31:46.861Z,14.40
2019-05-16T15:34:16.357Z,14.40
2019-05-16T15:36:46.747Z,14.40
2019-05-16T15:39:17.069Z,14.30
2019-05-16T15:41:46.749Z,14.20
2019-05-16T15:44:17.176Z,14.20
2019-05-16T15:46:47.826Z,14.10
2019-05-16T15:49:17.979Z,14.00
2019-05-16T15:51:48.779Z,13.90
2019-05-16T15:54:22.941Z,13.80
2019-05-16T15:56:52.317Z,13.80
2019-05-16T15:59:21.752Z,13.80
2019-05-16T16:01:51.167Z,13.70
2019-05-16T16:04:20.633Z,13.60
2019-05-16T16:06:50.055Z,13.50
2019-05-16T16:09:19.466Z,13.40
2019-05-16T16:11:48.866Z,13.40
2019-05-16T16:14:18.289Z,13.30
2019-05-16T16:16:47.615Z,13.40
2019-05-16T16:19:17.486Z,13.40
2019-05-16T16:21:47.397Z,13.30
2019-05-16T16:24:19.190Z,13.40
2019-05-16T16:26:48.063Z,13.40
2019-05-16T16:29:17.482Z,13.40
2019-05-16T16:31:47.649Z,13.40
2019-05-16T16:34:17.710Z,13.50
2019-05-16T16:36:47.783Z,13.40
2019-05-16T16:39:17.282Z,13.40
2019-05-16T16:41:47.823Z,13.40
2019-05-16T16:44:18.083Z,13.40
2019-05-16T16:46:47.723Z,13.40
2019-05-16T16:49:17.436Z,13.30
2019-05-16T16:51:48.030Z,13.30
2019-05-16T16:54:17.812Z,13.30
2019-05-16T16:56:47.483Z,13.30
2019-05-16T16:59:17.424Z,13.20
2019-05-16T17:01:47.293Z,13.20
2019-05-16T17:04:17.523Z,13.20
2019-05-16T17:06:47.182Z,13.10
2019-05-16T17:09:16.608Z,13.10
2019-05-16T17:11:46.541Z,13.10
2019-05-16T17:14:17.386Z,13.10
2019-05-16T17:16:47.505Z,13.10
2019-05-16T17:19:17.148Z,13.00
2019-05-16T17:22:01.799Z,13.00
2019-05-16T17:24:17.538Z,13.00
2019-05-16T17:26:47.840Z,13.00
2019-05-16T17:29:17.365Z,12.90
2019-05-16T17:31:53.826Z,12.90
2019-05-16T17:34:17.886Z,12.90
2019-05-16T17:36:47.391Z,12.90
2019-05-16T17:39:18.290Z,12.80
2019-05-16T17:41:54.475Z,12.80
2019-05-16T17:44:19.150Z,12.80
2019-05-16T17:46:48.478Z,12.70
2019-05-16T17:49:18.361Z,12.70
2019-05-16T17:51:48.326Z,12.70
2019-05-16T17:54:17.678Z,12.60
2019-05-16T17:56:47.028Z,12.60
2019-05-16T17:59:17.079Z,12.60
2019-05-16T18:01:46.700Z,12.50
2019-05-16T18:04:17.232Z,12.50
2019-05-16T18:06:47.254Z,12.50
2019-05-16T18:09:17.152Z,12.50
2019-05-16T18:11:46.928Z,12.50
2019-05-16T18:14:17.214Z,12.40
2019-05-16T18:16:57.070Z,12.40
2019-05-16T18:19:17.859Z,12.40
2019-05-16T18:21:47.293Z,12.30
2019-05-16T18:24:16.860Z,12.30
2019-05-16T18:26:46.264Z,12.20
2019-05-16T18:29:16.317Z,12.20
2019-05-16T18:31:47.170Z,12.10
2019-05-16T18:34:17.224Z,12.10
2019-05-16T18:36:46.813Z,12.10
2019-05-16T18:39:16.404Z,12.10
2019-05-16T18:41:47.221Z,12.00
2019-05-16T18:44:16.847Z,11.90
2019-05-16T18:46:47.092Z,11.90
2019-05-16T18:49:16.682Z,11.90
2019-05-16T18:51:46.563Z,11.80
2019-05-16T18:54:17.356Z,11.80
2019-05-16T18:56:47.418Z,11.80
2019-05-16T18:59:17.098Z,11.70
2019-05-16T19:01:47.015Z,11.70
2019-05-16T19:04:17.817Z,11.70
2019-05-16T19:06:47.196Z,11.70
2019-05-16T19:09:16.761Z,11.70
2019-05-16T19:11:46.164Z,11.60
2019-05-16T19:14:16.922Z,11.60
2019-05-16T19:16:48.923Z,11.50
2019-05-16T19:19:17.710Z,11.50
2019-05-16T19:21:47.140Z,11.50
2019-05-16T19:24:16.618Z,11.50
2019-05-16T19:26:46.930Z,11.50
2019-05-16T19:29:17.354Z,11.50
2019-05-16T19:31:49.923Z,11.50
2019-05-16T19:34:18.054Z,11.40
2019-05-16T19:36:47.418Z,11.40
2019-05-16T19:39:16.808Z,11.40
2019-05-16T19:41:46.686Z,11.30
2019-05-16T19:44:16.806Z,11.30
2019-05-16T19:46:46.876Z,11.30
2019-05-16T19:49:16.536Z,11.20
2019-05-16T19:51:48.857Z,11.30
2019-05-16T19:54:17.121Z,11.20
2019-05-16T19:56:46.912Z,11.20
2019-05-16T19:59:16.947Z,11.20
2019-05-16T20:01:46.554Z,11.20
2019-05-16T20:04:18.429Z,11.20
2019-05-16T20:06:47.662Z,11.20
2019-05-16T20:09:17.023Z,11.10
2019-05-16T20:11:46.613Z,11.10
2019-05-16T20:14:19.287Z,11.10
2019-05-16T20:16:47.170Z,11.10
2019-05-16T20:19:16.796Z,11.00
2019-05-16T20:21:47.573Z,11.00
2019-05-16T20:24:17.099Z,11.00
2019-05-16T20:26:48.601Z,11.00
2019-05-16T20:29:18.247Z,11.00
2019-05-16T20:31:47.663Z,11.00
2019-05-16T20:34:17.708Z,11.00
2019-05-16T20:36:47.333Z,11.00
2019-05-16T20:39:17.380Z,10.90
2019-05-16T20:41:47.931Z,10.90
2019-05-16T20:44:17.547Z,10.90
2019-05-16T20:46:49.735Z,10.90
2019-05-16T20:49:18.611Z,10.90
2019-05-16T20:51:50.079Z,10.90
2019-05-16T20:54:19.052Z,10.90
2019-05-16T20:56:49.488Z,10.80
2019-05-16T20:59:19.135Z,10.80
2019-05-16T21:01:49.232Z,10.80
2019-05-16T21:04:19.003Z,10.80
2019-05-16T21:07:00.319Z,10.70
2019-05-16T21:09:19.362Z,10.70
2019-05-16T21:11:50.080Z,10.70
2019-05-16T21:14:19.592Z,10.70
2019-05-16T21:16:49.610Z,10.70
2019-05-16T21:19:19.300Z,10.60
2019-05-16T21:21:48.996Z,10.60
2019-05-16T21:24:18.368Z,10.60
2019-05-16T21:26:47.767Z,10.60
2019-05-16T21:29:19.580Z,10.50
2019-05-16T21:31:48.170Z,10.50
2019-05-16T21:34:19.184Z,10.50
2019-05-16T21:36:48.567Z,10.40
2019-05-16T21:39:17.912Z,10.40
2019-05-16T21:41:47.381Z,10.40
2019-05-16T21:44:17.080Z,10.30
2019-05-16T21:46:47.200Z,10.30
2019-05-16T21:49:19.497Z,10.30
2019-05-16T21:51:47.635Z,10.20
2019-05-16T21:54:16.937Z,10.20
2019-05-16T21:56:46.775Z,10.20
2019-05-16T21:59:16.457Z,10.10
2019-05-16T22:01:47.260Z,10.00
2019-05-16T22:04:16.900Z,10.00
2019-05-16T22:06:47.498Z,9.90
2019-05-16T22:09:17.088Z,9.90
2019-05-16T22:11:46.609Z,9.80
2019-05-16T22:14:18.449Z,9.70
2019-05-16T22:16:47.797Z,9.70
2019-05-16T22:19:17.161Z,9.70
2019-05-16T22:21:46.569Z,9.60
2019-05-16T22:24:17.242Z,9.60
2019-05-16T22:26:46.785Z,9.50
2019-05-16T22:29:17.044Z,9.50
2019-05-16T22:31:47.235Z,9.40
2019-05-16T22:34:17.014Z,9.40
2019-05-16T22:36:49.231Z,9.40
2019-05-16T22:39:17.627Z,9.40
2019-05-16T22:41:46.929Z,9.40
2019-05-16T22:44:17.669Z,9.30
2019-05-16T22:46:47.256Z,9.30
2019-05-16T22:49:16.984Z,9.30
2019-05-16T22:51:46.431Z,9.30
2019-05-16T22:54:17.174Z,9.30
2019-05-16T22:56:46.985Z,9.30
2019-05-16T22:59:16.658Z,9.30
2019-05-16T23:01:46.286Z,9.30
2019-05-16T23:04:16.835Z,9.30
2019-05-16T23:06:46.310Z,9.40
2019-05-16T23:09:16.414Z,9.40
2019-05-16T23:11:45.993Z,9.40
2019-05-16T23:14:17.065Z,9.40
2019-05-16T23:16:46.519Z,9.30
2019-05-16T23:19:17.135Z,9.40
2019-05-16T23:21:47.440Z,9.30
2019-05-16T23:24:17.338Z,9.30
2019-05-16T23:26:47.068Z,9.40
2019-05-16T23:29:17.025Z,9.40
2019-05-16T23:31:47.151Z,9.30
2019-05-16T23:34:18.772Z,9.30
2019-05-16T23:36:47.969Z,9.30
2019-05-16T23:39:17.293Z,9.30
2019-05-16T23:41:47.427Z,9.30
2019-05-16T23:44:16.879Z,9.30
2019-05-16T23:46:47.066Z,9.40
2019-05-16T23:49:16.940Z,9.30
2019-05-16T23:51:47.362Z,9.30
2019-05-16T23:54:17.259Z,9.30
2019-05-16T23:56:46.839Z,9.30
2019-05-16T23:59:17.220Z,9.30
